Time;durP1;ratioP1;P1;durP2;ratioP2;P2;SDS_P1;SDS_P2;PMS_P1;PMS_P2;Temp;Humidity;BMP_temperature;BMP_pressure;BME280_temperature;BME280_humidity;BME280_pressure;Samples;Min_cycle;Max_cycle;Signal;HPM_P1;HPM_P2
2022/01/09 00:04:58;;;;;;;28.47;14.83;;;;;;;0.86;100.00;99457.61;3506007;83;99146;-82
2022/01/09 00:09:59;;;;;;;29.43;15.70;;;;;;;0.87;100.00;99457.28;3534374;81;99209;-82
2022/01/09 00:15:01;;;;;;;29.90;15.10;;;;;;;0.90;100.00;99453.91;3571233;82;99270;-82
2022/01/09 00:20:05;;;;;;;27.63;15.00;;;;;;;0.90;100.00;99440.38;3552831;82;98941;-82
2022/01/09 00:25:07;;;;;;;30.50;15.33;;;;;;;0.90;100.00;99438.22;3563444;82;98830;-82
2022/01/09 00:30:12;;;;;;;32.40;16.67;;;;;;;0.92;100.00;99433.24;3555985;81;99012;-84
2022/01/09 00:35:15;;;;;;;30.43;16.07;;;;;;;0.93;100.00;99423.44;3554844;82;98735;-83
2022/01/09 00:40:17;;;;;;;34.50;19.30;;;;;;;0.94;100.00;99421.53;3547184;81;99395;-84
2022/01/09 00:45:18;;;;;;;40.17;21.50;;;;;;;0.96;100.00;99411.94;3568206;82;99404;-84
2022/01/09 00:50:19;;;;;;;39.97;21.23;;;;;;;0.99;100.00;99412.59;3564621;82;98925;-83
2022/01/09 00:55:20;;;;;;;39.30;20.77;;;;;;;1.01;100.00;99404.14;3509964;83;99132;-83
2022/01/09 01:00:21;;;;;;;39.87;21.73;;;;;;;1.02;100.00;99390.27;3518126;82;98807;-83
2022/01/09 01:05:22;;;;;;;44.43;22.23;;;;;;;1.04;100.00;99392.06;3590632;80;98713;-83
2022/01/09 01:10:23;;;;;;;44.10;22.73;;;;;;;1.01;100.00;99390.05;3584100;80;98870;-84
2022/01/09 01:15:24;;;;;;;45.80;23.43;;;;;;;1.01;100.00;99379.20;3532820;82;98916;-84
2022/01/09 01:20:25;;;;;;;45.93;23.93;;;;;;;0.98;100.00;99370.95;3569473;81;98872;-84
2022/01/09 01:25:27;;;;;;;46.27;23.77;;;;;;;0.93;100.00;99348.95;3538610;82;98837;-84
2022/01/09 01:30:28;;;;;;;40.13;21.73;;;;;;;0.92;100.00;99339.25;3550185;81;98528;-84
2022/01/09 01:35:29;;;;;;;49.17;23.80;;;;;;;0.87;100.00;99330.55;3549368;81;98977;-84
2022/01/09 01:40:30;;;;;;;40.70;20.90;;;;;;;0.82;100.00;99329.45;3538543;82;98675;-84
2022/01/09 01:45:31;;;;;;;47.57;23.13;;;;;;;0.79;100.00;99320.08;3550702;81;98828;-84
2022/01/09 01:50:37;;;;;;;41.73;21.83;;;;;;;0.71;100.00;99310.14;3540183;82;99012;-82
2022/01/09 01:55:41;;;;;;;52.07;25.70;;;;;;;0.58;100.00;99298.30;3554446;81;98877;-83
2022/01/09 02:00:42;;;;;;;54.67;27.25;;;;;;;0.50;100.00;99283.74;3519388;82;99084;-83
2022/01/09 02:05:45;;;;;;;58.10;29.20;;;;;;;0.41;100.00;99270.11;3420296;84;98760;-81
2022/01/09 02:10:47;;;;;;;55.55;27.52;;;;;;;0.33;100.00;99256.91;3507826;82;99198;-83
2022/01/09 02:15:48;;;;;;;52.60;25.87;;;;;;;0.23;100.00;99243.81;3526152;81;99221;-81
2022/01/09 02:20:51;;;;;;;59.08;29.98;;;;;;;0.17;100.00;99240.34;3498752;82;98942;-81
2022/01/09 02:25:52;;;;;;;62.08;32.10;;;;;;;0.09;100.00;99232.55;3480486;82;98876;-81
2022/01/09 02:30:53;;;;;;;58.20;31.07;;;;;;;0.01;100.00;99220.48;3501488;82;98899;-81
2022/01/09 02:35:56;;;;;;;52.25;28.20;;;;;;;-0.02;100.00;99211.13;3518936;82;98902;-81
2022/01/09 02:40:57;;;;;;;59.65;30.60;;;;;;;-0.04;100.00;99203.90;3496362;82;98851;-81
2022/01/09 02:46:11;;;;;;;64.23;30.77;;;;;;;-0.19;100.00;99201.08;3505464;82;98929;-82
2022/01/09 02:51:06;;;;;;;77.63;41.17;;;;;;;-0.31;100.00;99206.47;3496121;82;99490;-81
2022/01/09 02:56:05;;;;;;;88.27;42.08;;;;;;;-0.44;100.00;99200.78;3523780;82;99459;-81
2022/01/09 03:01:09;;;;;;;86.72;40.60;;;;;;;-0.46;100.00;99185.48;3513134;82;109211;-81
2022/01/09 03:06:10;;;;;;;75.70;35.53;;;;;;;-0.55;100.00;99173.95;3541726;81;28155;-81
2022/01/09 03:11:11;;;;;;;83.63;39.77;;;;;;;-0.59;100.00;99166.87;3582740;81;99054;-81
2022/01/09 03:16:12;;;;;;;81.77;38.97;;;;;;;-0.69;100.00;99169.44;3579887;81;98924;-81
2022/01/09 03:21:12;;;;;;;68.50;34.13;;;;;;;-0.74;100.00;99166.94;3581045;81;98942;-80
2022/01/09 03:26:13;;;;;;;64.90;32.60;;;;;;;-0.79;100.00;99166.34;3590556;81;99045;-81
2022/01/09 03:31:14;;;;;;;69.70;34.70;;;;;;;-0.84;100.00;99161.15;3583633;80;99153;-80
2022/01/09 03:36:15;;;;;;;64.97;34.00;;;;;;;-0.90;100.00;99177.33;3592618;81;32965;-81
2022/01/09 03:41:16;;;;;;;82.77;39.40;;;;;;;-0.94;100.00;99161.59;3561795;81;99202;-80
2022/01/09 03:46:17;;;;;;;74.63;34.07;;;;;;;-0.97;100.00;99159.53;3580891;81;99018;-81
2022/01/09 03:51:18;;;;;;;64.53;33.73;;;;;;;-1.00;100.00;99163.69;3581287;81;99017;-80
2022/01/09 03:56:19;;;;;;;67.93;33.53;;;;;;;-1.00;100.00;99167.73;3515252;82;99720;-80
2022/01/09 04:01:20;;;;;;;69.60;33.70;;;;;;;-1.02;100.00;99165.94;3569458;81;99154;-81
2022/01/09 04:06:23;;;;;;;66.40;34.20;;;;;;;-1.02;100.00;99162.44;3506311;82;26210;-81
2022/01/09 04:11:28;;;;;;;64.07;29.00;;;;;;;-1.11;100.00;99161.16;3513217;82;99090;-81
2022/01/09 04:16:27;;;;;;;66.17;29.33;;;;;;;-1.26;100.00;99159.06;3460829;81;99636;-81
2022/01/09 04:21:27;;;;;;;59.33;26.90;;;;;;;-1.36;100.00;99156.79;3486866;82;99073;-81
2022/01/09 04:26:28;;;;;;;61.10;29.80;;;;;;;-1.39;100.00;99148.53;3485239;83;99398;-81
2022/01/09 04:31:29;;;;;;;64.27;28.60;;;;;;;-1.42;100.00;99154.61;3483103;82;99555;-82
2022/01/09 04:36:30;;;;;;;60.97;28.60;;;;;;;-1.51;100.00;99160.06;3488332;83;26470;-82
2022/01/09 04:41:31;;;;;;;60.60;27.67;;;;;;;-1.53;100.00;99160.94;3476325;82;99079;-82
2022/01/09 04:46:42;;;;;;;57.17;27.30;;;;;;;-1.58;100.00;99171.14;3474534;83;99369;-82
2022/01/09 04:51:35;;;;;;;66.87;30.33;;;;;;;-1.60;100.00;99166.64;3479402;83;99144;-82
2022/01/09 04:56:36;;;;;;;62.90;27.42;;;;;;;-1.69;100.00;99157.23;3484370;83;99197;-82
2022/01/09 05:01:36;;;;;;;65.30;29.10;;;;;;;-1.78;100.00;99164.61;3484644;82;99192;-83
2022/01/09 05:06:37;;;;;;;61.63;30.33;;;;;;;-1.80;100.00;99158.73;3551806;81;26404;-83
2022/01/09 05:11:38;;;;;;;60.43;28.57;;;;;;;-1.85;100.00;99153.55;3536406;81;99000;-82
2022/01/09 05:16:43;;;;;;;72.47;33.85;;;;;;;-1.84;100.00;99147.04;3531346;82;99535;-83
2022/01/09 05:21:42;;;;;;;76.83;33.10;;;;;;;-1.91;100.00;99149.44;3535061;82;99226;-83
2022/01/09 05:26:43;;;;;;;62.37;29.20;;;;;;;-1.96;100.00;99146.16;3538008;82;99269;-83
2022/01/09 05:31:45;;;;;;;62.80;31.07;;;;;;;-1.98;100.00;99149.17;3539742;82;99154;-83
2022/01/09 05:36:47;;;;;;;64.67;29.00;;;;;;;-2.04;100.00;99147.78;3554593;82;26238;-83
2022/01/09 05:41:48;;;;;;;66.17;30.83;;;;;;;-2.11;100.00;99142.11;3531041;82;99423;-83
2022/01/09 05:46:48;;;;;;;56.47;27.50;;;;;;;-2.14;100.00;99147.37;3526771;82;99043;-83
2022/01/09 05:51:49;;;;;;;64.53;29.87;;;;;;;-2.18;100.00;99132.37;3545546;81;99223;-83
2022/01/09 05:56:53;;;;;;;54.77;27.10;;;;;;;-2.21;100.00;99127.66;3543980;81;99544;-83
2022/01/09 06:01:56;;;;;;;59.83;29.43;;;;;;;-2.26;100.00;99138.61;3518565;82;99582;-83
2022/01/09 06:06:57;;;;;;;63.00;28.73;;;;;;;-2.24;100.00;99151.77;3536523;82;25897;-84
2022/01/09 06:11:58;;;;;;;66.40;30.07;;;;;;;-2.27;100.00;99147.81;3535329;81;99160;-83
2022/01/09 06:16:59;;;;;;;65.90;30.00;;;;;;;-2.32;100.00;99141.80;3551403;81;98227;-83
2022/01/09 06:22:00;;;;;;;67.40;29.23;;;;;;;-2.40;100.00;99134.56;3462918;83;99133;-83
2022/01/09 06:27:01;;;;;;;76.63;37.77;;;;;;;-2.42;100.00;99136.77;3522784;80;99603;-84
2022/01/09 06:32:03;;;;;;;78.33;34.77;;;;;;;-2.47;100.00;99135.62;3483735;82;99581;-83
2022/01/09 06:37:04;;;;;;;77.20;35.17;;;;;;;-2.69;100.00;99100.28;3566796;81;99307;-84
2022/01/09 06:42:05;;;;;;;73.90;32.43;;;;;;;-2.61;100.00;99125.06;3555086;81;99054;-83
2022/01/09 06:47:07;;;;;;;63.48;29.15;;;;;;;-2.58;100.00;99134.40;3574669;81;99040;-83
2022/01/09 06:52:08;;;;;;;64.80;30.23;;;;;;;-2.62;100.00;99136.14;3561055;81;99234;-83
2022/01/09 06:57:09;;;;;;;60.93;27.97;;;;;;;-2.67;100.00;99136.31;3562431;80;99290;-83
2022/01/09 07:02:10;;;;;;;64.83;29.03;;;;;;;-2.70;100.00;99131.56;3552980;81;99123;-83
2022/01/09 07:07:11;;;;;;;61.90;28.17;;;;;;;-2.70;100.00;99130.21;3518166;81;99197;-84
2022/01/09 07:12:11;;;;;;;71.40;32.33;;;;;;;-2.74;100.00;99131.41;3523702;81;99137;-83
2022/01/09 07:17:13;;;;;;;67.13;27.57;;;;;;;-2.78;100.00;99142.58;3529209;81;98955;-83
2022/01/09 07:22:14;;;;;;;64.77;29.40;;;;;;;-2.79;100.00;99130.23;3517989;82;99268;-82
2022/01/09 07:27:15;;;;;;;65.53;28.60;;;;;;;-2.80;100.00;99132.70;3524098;81;99597;-81
2022/01/09 07:32:16;;;;;;;59.57;27.20;;;;;;;-2.78;100.00;99118.35;3521845;81;99088;-83
2022/01/09 07:37:17;;;;;;;61.13;27.73;;;;;;;-2.77;100.00;99116.47;3521501;80;99151;-83
2022/01/09 07:42:18;;;;;;;52.07;26.37;;;;;;;-2.74;100.00;99112.57;3512235;82;98754;-82
2022/01/09 07:47:19;;;;;;;53.37;26.60;;;;;;;-2.69;100.00;99105.66;3530833;82;98986;-83
2022/01/09 07:52:19;;;;;;;52.97;26.27;;;;;;;-2.70;100.00;99111.36;3500465;82;99766;-82
2022/01/09 07:57:21;;;;;;;52.73;25.97;;;;;;;-2.67;100.00;99110.16;3502269;80;99571;-82
2022/01/09 08:02:22;;;;;;;48.47;24.13;;;;;;;-2.63;100.00;99108.98;3482864;83;99624;-82
2022/01/09 08:07:23;;;;;;;63.38;29.57;;;;;;;-2.58;100.00;99114.20;3520212;82;99614;-83
2022/01/09 08:12:24;;;;;;;63.47;30.67;;;;;;;-2.54;100.00;99110.53;3497792;82;99015;-81
2022/01/09 08:17:25;;;;;;;60.67;29.37;;;;;;;-2.46;100.00;99108.34;3517669;82;99029;-80
2022/01/09 08:22:29;;;;;;;61.03;26.97;;;;;;;-2.38;100.00;99102.14;3506339;82;99106;-82
2022/01/09 08:27:28;;;;;;;60.00;28.85;;;;;;;-2.26;100.00;99107.63;3508332;82;99594;-82
2022/01/09 08:32:29;;;;;;;55.63;27.77;;;;;;;-2.13;100.00;99104.48;3505439;82;99158;-81
2022/01/09 08:37:30;;;;;;;51.83;27.73;;;;;;;-1.93;100.00;99110.44;3519836;81;99270;-81
2022/01/09 08:42:31;;;;;;;58.03;27.87;;;;;;;-1.67;100.00;99107.02;3515809;82;99032;-80
2022/01/09 08:47:35;;;;;;;51.53;25.70;;;;;;;-1.42;100.00;99108.74;3501189;82;98834;-80
2022/01/09 08:52:35;;;;;;;55.00;25.27;;;;;;;-1.19;100.00;99115.36;3461041;83;98907;-80
2022/01/09 08:57:36;;;;;;;55.40;25.37;;;;;;;-0.92;100.00;99118.28;3505320;82;99439;-80
2022/01/09 09:02:37;;;;;;;52.87;25.73;;;;;;;-0.85;100.00;99123.13;3511373;82;99182;-81
2022/01/09 09:07:38;;;;;;;49.18;23.65;;;;;;;-0.85;100.00;99121.77;3571270;81;99007;-82
2022/01/09 09:12:39;;;;;;;43.57;22.13;;;;;;;-0.92;100.00;99104.78;3566563;81;98805;-82
2022/01/09 09:17:40;;;;;;;46.93;22.73;;;;;;;-0.91;100.00;99101.50;3548513;81;98896;-82
2022/01/09 09:22:41;;;;;;;47.73;23.03;;;;;;;-0.91;100.00;99102.86;3536469;82;98899;-80
2022/01/09 09:27:42;;;;;;;44.13;21.67;;;;;;;-0.83;100.00;99093.31;3545869;81;99426;-80
2022/01/09 09:32:43;;;;;;;47.23;22.37;;;;;;;-0.62;100.00;99098.66;3568580;81;99299;-80
2022/01/09 09:37:45;;;;;;;43.77;23.73;;;;;;;-0.41;100.00;99089.33;3555906;81;99035;-80
2022/01/09 09:42:46;;;;;;;44.50;23.53;;;;;;;-0.15;100.00;99106.78;3553138;81;98833;-81
2022/01/09 09:47:47;;;;;;;49.90;23.23;;;;;;;0.14;100.00;99105.76;3608777;79;98834;-80
2022/01/09 09:52:49;;;;;;;47.97;24.37;;;;;;;0.25;100.00;99097.39;3552585;81;99155;-80
2022/01/09 09:57:50;;;;;;;51.83;23.50;;;;;;;0.35;99.46;99099.09;3509456;83;98928;-81
2022/01/09 10:03:02;;;;;;;52.87;25.47;;;;;;;0.48;99.15;99091.15;3561315;80;98914;-78
2022/01/09 10:08:15;;;;;;;45.00;25.20;;;;;;;0.57;98.62;99085.59;3555007;81;98744;-81
2022/01/09 10:13:18;;;;;;;47.87;23.50;;;;;;;0.57;98.33;99090.45;3561444;81;97951;-81
2022/01/09 10:18:44;;;;;;;49.03;25.73;;;;;;;0.63;97.95;99098.55;3556465;81;98560;-81
2022/01/09 10:24:04;;;;;;;57.98;26.25;;;;;;;0.64;97.64;99091.20;3563821;81;98531;-81
2022/01/09 10:29:07;;;;;;;55.05;27.17;;;;;;;0.58;97.34;99088.52;3568679;81;98950;-82
2022/01/09 10:34:10;;;;;;;60.10;29.77;;;;;;;0.52;97.48;99090.69;3574975;80;98789;-81
2022/01/09 10:39:22;;;;;;;50.45;24.98;;;;;;;0.51;97.06;99081.55;3558900;81;98727;-81
2022/01/09 10:44:37;;;;;;;51.30;25.17;;;;;;;0.55;97.16;99072.98;3584848;80;99015;-81
2022/01/09 10:49:47;;;;;;;58.63;30.03;;;;;;;0.56;97.06;99065.84;3495357;83;98906;-81
2022/01/09 10:54:50;;;;;;;70.90;30.90;;;;;;;0.45;96.43;99059.34;3555510;81;26420;-81
2022/01/09 10:59:52;;;;;;;57.47;27.90;;;;;;;0.50;96.81;99065.88;3513015;81;98918;-82
2022/01/09 11:04:53;;;;;;;66.57;32.07;;;;;;;0.46;96.48;99054.73;3554750;81;98882;-83
2022/01/09 11:09:56;;;;;;;69.67;31.83;;;;;;;0.42;95.75;99060.05;3573394;81;98567;-82
2022/01/09 11:15:04;;;;;;;62.17;28.87;;;;;;;0.41;96.23;99056.33;3547303;81;98641;-81
2022/01/09 11:20:06;;;;;;;58.17;29.00;;;;;;;0.46;96.21;99046.61;3575120;80;98611;-82
2022/01/09 11:25:16;;;;;;;53.30;27.90;;;;;;;0.43;95.91;99051.34;3583226;81;98647;-81
2022/01/09 11:30:22;;;;;;;53.17;26.87;;;;;;;0.47;95.88;99046.28;3576762;81;98755;-82
2022/01/09 11:35:44;;;;;;;;;;;;;;;0.47;95.85;99054.39;3588289;81;98592;-83
2022/01/09 11:40:46;;;;;;;54.60;27.27;;;;;;;0.51;95.90;99051.78;3537795;81;84483;-83
2022/01/09 11:46:00;;;;;;;60.63;28.50;;;;;;;0.55;95.91;99048.04;3543918;81;98675;-84
2022/01/09 11:51:11;;;;;;;56.80;27.93;;;;;;;0.62;95.83;99052.29;3568100;80;98844;-85
2022/01/09 11:56:12;;;;;;;55.37;27.93;;;;;;;0.67;95.51;99049.92;3571682;81;98647;-84
2022/01/09 12:01:35;;;;;;;50.73;25.90;;;;;;;0.68;95.26;99049.58;3572016;80;98716;-84
2022/01/09 12:06:40;;;;;;;58.87;28.37;;;;;;;0.69;95.03;99055.21;3565599;81;27095;-83
2022/01/09 12:12:09;;;;;;;53.98;27.17;;;;;;;0.71;95.18;99065.70;3565500;80;98604;-83
2022/01/09 12:17:28;;;;;;;56.20;27.60;;;;;;;0.69;95.14;99063.89;3552795;81;98951;-83
2022/01/09 12:22:48;;;;;;;50.90;26.07;;;;;;;0.68;94.65;99073.95;3557257;81;98469;-83
2022/01/09 12:28:14;;;;;;;55.80;26.40;;;;;;;0.66;94.71;99068.07;3573954;79;99128;-83
2022/01/09 12:33:31;;;;;;;52.57;25.73;;;;;;;0.64;94.74;99083.88;3562910;81;98792;-84
2022/01/09 12:38:42;;;;;;;58.10;29.83;;;;;;;0.59;94.80;99084.13;3554924;81;98752;-84
2022/01/09 12:43:43;;;;;;;54.43;27.27;;;;;;;0.55;94.72;99098.11;3562876;81;97840;-83
2022/01/09 12:49:08;;;;;;;52.70;28.80;;;;;;;0.53;94.63;99099.58;3555081;81;98664;-83
2022/01/09 12:54:09;;;;;;;56.17;28.07;;;;;;;0.50;94.53;99098.94;3563809;81;98355;-84
2022/01/09 12:59:13;;;;;;;52.37;26.30;;;;;;;0.45;94.75;99104.58;3566197;80;98952;-83
2022/01/09 13:04:18;;;;;;;52.37;25.43;;;;;;;0.42;94.77;99105.25;3575743;80;98665;-84
2022/01/09 13:09:25;;;;;;;57.57;28.37;;;;;;;0.38;94.95;99103.00;3592812;80;98738;-86
2022/01/09 13:14:26;;;;;;;55.80;28.80;;;;;;;0.35;95.07;99114.52;3498393;83;99483;-83
2022/01/09 13:19:28;;;;;;;55.50;26.57;;;;;;;0.34;95.08;99120.48;3493775;83;98772;-84
2022/01/09 13:24:29;;;;;;;51.57;27.03;;;;;;;0.31;95.10;99110.36;3570043;81;26395;-83
2022/01/09 13:29:34;;;;;;;52.55;27.02;;;;;;;0.29;95.25;99124.77;3535214;81;98788;-83
2022/01/09 13:34:41;;;;;;;55.07;28.53;;;;;;;0.27;95.35;99131.09;3563402;81;99090;-83
2022/01/09 13:39:45;;;;;;;57.48;28.40;;;;;;;0.26;95.52;99136.30;3597320;80;99100;-83
2022/01/09 13:45:03;;;;;;;61.30;28.23;;;;;;;0.22;95.55;99143.50;3512137;82;99302;-83
2022/01/09 13:50:05;;;;;;;63.80;29.43;;;;;;;0.20;95.81;99140.36;3562567;81;98760;-82
2022/01/09 13:55:14;;;;;;;57.77;28.73;;;;;;;0.18;95.88;99148.59;3570159;81;26224;-83
2022/01/09 14:00:17;;;;;;;61.40;29.77;;;;;;;0.13;95.86;99152.29;3504728;82;98736;-83
2022/01/09 14:05:19;;;;;;;59.23;28.77;;;;;;;0.07;95.93;99143.41;3559052;81;98482;-83
2022/01/09 14:10:33;;;;;;;53.42;26.37;;;;;;;0.04;96.12;99158.39;3513285;82;98792;-83
2022/01/09 14:15:34;;;;;;;61.07;28.30;;;;;;;0.01;96.23;99157.70;3520997;82;98731;-82
2022/01/09 14:20:36;;;;;;;60.50;29.67;;;;;;;-0.03;96.28;99162.78;3482319;83;98964;-83
2022/01/09 14:25:40;;;;;;;56.53;28.43;;;;;;;-0.07;96.33;99170.56;3503666;82;99316;-82
2022/01/09 14:30:44;;;;;;;61.27;28.03;;;;;;;-0.11;96.57;99169.87;3507174;82;98796;-82
2022/01/09 14:36:10;;;;;;;59.10;30.20;;;;;;;-0.13;96.72;99180.80;3512840;82;99237;-82
2022/01/09 14:41:11;;;;;;;57.07;28.77;;;;;;;-0.17;96.79;99186.64;3505536;82;99178;-83
2022/01/09 14:46:13;;;;;;;62.03;31.73;;;;;;;-0.20;96.92;99192.74;3510374;82;98701;-83
2022/01/09 14:51:15;;;;;;;57.93;30.05;;;;;;;-0.22;96.98;99194.20;3499671;82;99327;-83
2022/01/09 14:56:16;;;;;;;66.20;30.07;;;;;;;-0.29;96.90;99192.04;3502203;82;99496;-82
2022/01/09 15:01:18;;;;;;;68.77;32.10;;;;;;;-0.32;97.20;99193.28;3498618;82;98860;-82
2022/01/09 15:06:19;;;;;;;56.10;27.50;;;;;;;-0.35;97.26;99196.09;3496072;81;98499;-81
2022/01/09 15:11:20;;;;;;;60.50;27.70;;;;;;;-0.40;97.33;99203.05;3497403;83;99148;-81
2022/01/09 15:16:23;;;;;;;61.50;30.57;;;;;;;-0.45;97.31;99211.38;3561164;81;98974;-80
2022/01/09 15:21:24;;;;;;;59.80;27.77;;;;;;;-0.50;97.43;99200.77;3555968;81;99168;-81
2022/01/09 15:26:25;;;;;;;62.27;28.60;;;;;;;-0.53;97.60;99216.86;3556662;81;99239;-81
2022/01/09 15:31:26;;;;;;;68.77;33.80;;;;;;;-0.55;97.63;99220.47;3551246;81;99138;-82
2022/01/09 15:36:27;;;;;;;135.10;57.37;;;;;;;-0.58;97.61;99224.63;3552256;81;36123;-82
2022/01/09 15:41:28;;;;;;;151.13;62.00;;;;;;;-0.65;97.70;99232.49;3594836;80;99206;-81
2022/01/09 15:46:30;;;;;;;124.97;49.38;;;;;;;-0.69;97.81;99234.27;3505171;83;99070;-81
2022/01/09 15:51:33;;;;;;;78.87;39.33;;;;;;;-0.72;97.97;99232.80;3495693;83;99089;-82
2022/01/09 15:56:34;;;;;;;66.33;30.20;;;;;;;-0.75;97.97;99237.49;3553827;81;98813;-82
2022/01/09 16:01:35;;;;;;;54.47;29.03;;;;;;;-0.81;98.11;99232.88;3513677;82;99262;-82
2022/01/09 16:06:36;;;;;;;56.97;28.03;;;;;;;-0.82;98.18;99244.77;3530818;82;34893;-82
2022/01/09 16:11:37;;;;;;;60.73;27.53;;;;;;;-0.85;98.32;99258.95;3474079;83;99000;-82
2022/01/09 16:16:38;;;;;;;62.85;30.43;;;;;;;-0.88;98.32;99252.07;3490010;82;99181;-82
2022/01/09 16:21:39;;;;;;;68.83;30.50;;;;;;;-0.91;98.48;99276.47;3521339;82;99165;-82
2022/01/09 16:26:40;;;;;;;73.65;32.55;;;;;;;-0.93;98.53;99273.88;3513271;82;98843;-82
2022/01/09 16:31:41;;;;;;;71.63;34.00;;;;;;;-0.98;98.54;99282.97;3503256;82;98879;-82
2022/01/09 16:36:45;;;;;;;70.10;34.77;;;;;;;-0.98;98.65;99296.47;3467657;83;35857;-82
2022/01/09 16:41:48;;;;;;;74.00;35.53;;;;;;;-1.00;98.57;99297.33;3457279;84;98691;-82
2022/01/09 16:46:48;;;;;;;69.60;32.10;;;;;;;-1.02;98.66;99307.69;3467914;83;98640;-82
2022/01/09 16:51:49;;;;;;;70.87;35.90;;;;;;;-1.04;98.60;99318.00;3478167;83;99228;-82
2022/01/09 16:56:51;;;;;;;74.20;33.83;;;;;;;-1.05;98.76;99315.66;3441376;83;99279;-82
2022/01/09 17:01:52;;;;;;;68.10;30.50;;;;;;;-1.07;98.85;99313.81;3508064;81;98926;-83
2022/01/09 17:06:53;;;;;;;68.33;32.30;;;;;;;-1.10;98.80;99332.03;3497056;83;36054;-83
2022/01/09 17:11:54;;;;;;;67.40;32.48;;;;;;;-1.14;98.63;99339.20;3489173;83;98734;-82
2022/01/09 17:16:55;;;;;;;65.10;31.97;;;;;;;-1.17;98.80;99335.78;3503652;82;98677;-83
2022/01/09 17:21:56;;;;;;;68.50;33.87;;;;;;;-1.19;98.84;99346.13;3515214;82;99348;-82
2022/01/09 17:26:57;;;;;;;74.23;35.30;;;;;;;-1.21;99.09;99347.02;3517741;82;98851;-82
2022/01/09 17:31:59;;;;;;;81.90;35.30;;;;;;;-1.22;98.91;99350.84;3513778;82;99097;-82
2022/01/09 17:36:59;;;;;;;74.20;34.97;;;;;;;-1.23;99.05;99355.44;3506246;82;34841;-82
2022/01/09 17:42:01;;;;;;;74.33;34.07;;;;;;;-1.26;98.84;99364.17;3511685;82;99121;-82
2022/01/09 17:47:03;;;;;;;68.13;31.23;;;;;;;-1.28;99.04;99366.41;3519431;82;99105;-82
2022/01/09 17:52:05;;;;;;;67.73;32.33;;;;;;;-1.31;98.97;99384.59;3521766;82;99192;-82
2022/01/09 17:57:06;;;;;;;71.57;33.77;;;;;;;-1.31;98.91;99387.29;3523036;80;98831;-82
2022/01/09 18:02:07;;;;;;;66.83;31.27;;;;;;;-1.33;98.96;99404.92;3504915;82;98941;-82
2022/01/09 18:07:08;;;;;;;67.73;31.93;;;;;;;-1.34;99.00;99411.44;3517246;82;35514;-83
2022/01/09 18:12:10;;;;;;;73.93;32.43;;;;;;;-1.35;99.05;99419.30;3550363;81;98785;-83
2022/01/09 18:17:11;;;;;;;72.43;32.73;;;;;;;-1.38;98.98;99420.74;3540179;81;98890;-83
2022/01/09 18:22:12;;;;;;;73.37;34.03;;;;;;;-1.38;99.14;99425.36;3528365;81;99438;-83
2022/01/09 18:27:14;;;;;;;77.43;35.87;;;;;;;-1.43;99.15;99434.98;3553171;81;99359;-83
2022/01/09 18:32:15;;;;;;;77.97;34.83;;;;;;;-1.43;99.14;99430.36;3535297;81;99182;-84
2022/01/09 18:37:17;;;;;;;72.17;32.87;;;;;;;-1.43;99.10;99432.28;3546401;81;34795;-83
2022/01/09 18:42:18;;;;;;;72.00;34.00;;;;;;;-1.47;99.03;99438.08;3534062;81;98994;-83
2022/01/09 18:47:19;;;;;;;74.53;37.20;;;;;;;-1.50;99.09;99442.20;3544689;81;98842;-83
2022/01/09 18:52:20;;;;;;;67.70;36.90;;;;;;;-1.49;99.07;99450.53;3534857;81;99029;-83
2022/01/09 18:57:22;;;;;;;112.07;44.47;;;;;;;-1.49;99.12;99463.25;3550812;81;99286;-83
2022/01/09 19:02:24;;;;;;;77.50;36.30;;;;;;;-1.52;98.90;99460.63;3542983;81;99700;-82
2022/01/09 19:07:25;;;;;;;74.03;34.90;;;;;;;-1.52;99.06;99470.08;3548191;81;34843;-82
2022/01/09 19:12:25;;;;;;;78.95;38.17;;;;;;;-1.53;98.96;99473.86;3511528;80;98899;-82
2022/01/09 19:17:27;;;;;;;104.07;43.07;;;;;;;-1.50;99.10;99479.98;3522792;82;98824;-82
2022/01/09 19:22:28;;;;;;;102.20;44.00;;;;;;;-1.51;98.85;99486.49;3518903;82;98589;-82
2022/01/09 19:27:35;;;;;;;72.83;36.10;;;;;;;-1.52;98.90;99491.66;3512114;81;99189;-82
2022/01/09 19:32:32;;;;;;;74.50;36.03;;;;;;;-1.50;98.88;99503.45;3510451;81;99043;-82
2022/01/09 19:37:34;;;;;;;71.30;34.77;;;;;;;-1.49;99.24;99495.05;3522553;80;99026;-82
2022/01/09 19:42:35;;;;;;;82.97;36.63;;;;;;;-1.47;99.07;99504.17;3512579;82;98924;-82
2022/01/09 19:47:38;;;;;;;80.40;36.57;;;;;;;-1.45;99.17;99519.48;3516609;82;99219;-81
2022/01/09 19:52:39;;;;;;;84.10;38.57;;;;;;;-1.45;98.97;99525.68;3517154;82;98944;-83
2022/01/09 19:57:43;;;;;;;91.53;41.17;;;;;;;-1.46;98.85;99530.04;3517327;82;98978;-82
2022/01/09 20:02:46;;;;;;;82.02;38.65;;;;;;;-1.48;98.63;99537.09;3521385;82;99622;-82
2022/01/09 20:07:47;;;;;;;88.40;39.13;;;;;;;-1.47;98.99;99540.60;3523978;82;99414;-83
2022/01/09 20:12:51;;;;;;;80.50;35.80;;;;;;;-1.49;98.54;99549.58;3504502;82;98860;-83
2022/01/09 20:17:51;;;;;;;88.20;41.27;;;;;;;-1.49;98.58;99564.42;3508715;82;98816;-82
2022/01/09 20:22:54;;;;;;;84.43;36.43;;;;;;;-1.53;98.47;99555.37;3511563;82;98877;-81
2022/01/09 20:27:55;;;;;;;82.60;36.73;;;;;;;-1.53;98.64;99567.52;3487416;83;99123;-79
2022/01/09 20:32:56;;;;;;;84.63;35.90;;;;;;;-1.53;98.62;99579.65;3503694;80;99100;-80
2022/01/09 20:37:56;;;;;;;83.53;38.27;;;;;;;-1.56;98.64;99584.31;3514598;82;99059;-80
2022/01/09 20:42:59;;;;;;;110.50;45.70;;;;;;;-1.59;98.57;99593.06;3500046;82;98775;-80
2022/01/09 20:48:02;;;;;;;83.93;37.23;;;;;;;-1.61;98.27;99591.22;3501353;82;99420;-80
2022/01/09 20:53:05;;;;;;;84.50;36.45;;;;;;;-1.65;98.22;99603.77;3511800;82;99047;-80
2022/01/09 20:58:06;;;;;;;82.57;32.97;;;;;;;-1.65;98.49;99616.69;3491173;82;99347;-81
2022/01/09 21:03:08;;;;;;;86.93;37.70;;;;;;;-1.70;98.29;99614.71;3478681;82;99031;-80
2022/01/09 21:08:10;;;;;;;78.77;34.17;;;;;;;-1.72;98.19;99606.13;3510299;82;99013;-80
2022/01/09 21:13:11;;;;;;;76.90;33.83;;;;;;;-1.76;98.20;99610.58;3483233;83;25959;-80
2022/01/09 21:18:12;;;;;;;72.80;32.13;;;;;;;-1.78;98.30;99625.73;3480269;83;99087;-81
2022/01/09 21:23:13;;;;;;;72.37;32.37;;;;;;;-1.79;98.24;99636.28;3472202;83;98992;-80
2022/01/09 21:28:15;;;;;;;94.23;45.17;;;;;;;-1.83;98.08;99644.75;3464593;83;99173;-79
2022/01/09 21:33:17;;;;;;;75.15;33.92;;;;;;;-1.86;98.35;99649.98;3476242;83;99081;-81
2022/01/09 21:38:17;;;;;;;78.63;34.37;;;;;;;-1.87;98.23;99661.88;3468553;83;99175;-81
2022/01/09 21:43:20;;;;;;;77.33;35.00;;;;;;;-1.89;98.27;99659.48;3486894;82;35640;-82
2022/01/09 21:48:23;;;;;;;79.50;34.90;;;;;;;-1.92;98.31;99665.50;3486998;82;99379;-81
2022/01/09 21:53:24;;;;;;;75.13;34.13;;;;;;;-1.93;98.57;99681.44;3453893;83;99163;-81
2022/01/09 21:58:25;;;;;;;74.37;34.70;;;;;;;-1.93;98.48;99686.83;3504161;82;99083;-81
2022/01/09 22:03:26;;;;;;;77.27;34.10;;;;;;;-1.90;98.67;99688.11;3509747;82;99038;-81
2022/01/09 22:08:27;;;;;;;73.00;32.53;;;;;;;-1.86;98.79;99686.38;3455918;81;99330;-81
2022/01/09 22:13:29;;;;;;;76.73;34.60;;;;;;;-1.87;98.63;99700.98;3464355;84;99472;-81
2022/01/09 22:18:30;;;;;;;70.83;32.42;;;;;;;-1.86;98.79;99712.78;3459322;84;99324;-81
2022/01/09 22:23:33;;;;;;;72.67;33.53;;;;;;;-1.84;98.76;99716.52;3480102;83;99085;-82
2022/01/09 22:28:33;;;;;;;70.22;33.18;;;;;;;-1.89;98.45;99713.42;3487214;82;99107;-81
2022/01/09 22:33:34;;;;;;;68.67;32.77;;;;;;;-1.90;98.69;99713.72;3490349;83;98995;-82
2022/01/09 22:38:35;;;;;;;73.27;33.70;;;;;;;-1.91;98.58;99727.75;3486192;83;99116;-82
2022/01/09 22:43:36;;;;;;;76.73;34.27;;;;;;;-1.90;98.78;99740.14;3453900;84;99093;-82
2022/01/09 22:48:37;;;;;;;75.87;35.37;;;;;;;-1.91;98.76;99743.14;3461244;84;99068;-82
2022/01/09 22:53:38;;;;;;;70.37;32.23;;;;;;;-1.94;98.73;99748.61;3469047;84;98897;-82
2022/01/09 22:58:39;;;;;;;71.07;33.97;;;;;;;-1.96;98.88;99767.01;3464831;82;99852;-81
2022/01/09 23:03:40;;;;;;;84.23;37.40;;;;;;;-1.97;98.79;99763.27;3469992;80;99148;-82
2022/01/09 23:08:41;;;;;;;83.83;37.13;;;;;;;-2.02;98.72;99767.44;3510235;82;99126;-82
2022/01/09 23:13:42;;;;;;;85.53;37.83;;;;;;;-2.06;98.66;99783.45;3527559;82;99191;-82